Map

Track Data

SID SEASON NUMBER BASIN SUBBASIN NAME ISO_TIME NATURE LAT LON WMO_WIND WMO_PRES WMO_AGENCY TRACK_TYPE DIST2LAND LANDFALL IFLAG USA_AGENCY USA_ATCF_ID USA_LAT USA_LON USA_RECORD USA_STATUS USA_WIND USA_PRES USA_SSHS USA_R34_NE USA_R34_SE USA_R34_SW USA_R34_NW USA_R50_NE USA_R50_SE USA_R50_SW USA_R50_NW USA_R64_NE USA_R64_SE USA_R64_SW USA_R64_NW USA_POCI USA_ROCI USA_RMW USA_EYE TOKYO_LAT TOKYO_LON TOKYO_GRADE TOKYO_WIND TOKYO_PRES TOKYO_R50_DIR TOKYO_R50_LONG TOKYO_R50_SHORT TOKYO_R30_DIR TOKYO_R30_LONG TOKYO_R30_SHORT TOKYO_LAND CMA_LAT CMA_LON CMA_CAT CMA_WIND CMA_PRES HKO_LAT HKO_LON HKO_CAT HKO_WIND HKO_PRES NEWDELHI_LAT NEWDELHI_LON NEWDELHI_GRADE NEWDELHI_WIND NEWDELHI_PRES NEWDELHI_CI NEWDELHI_DP NEWDELHI_POCI REUNION_LAT REUNION_LON REUNION_TYPE REUNION_WIND REUNION_PRES REUNION_TNUM REUNION_CI REUNION_RMW REUNION_R34_NE REUNION_R34_SE REUNION_R34_SW REUNION_R34_NW REUNION_R50_NE REUNION_R50_SE REUNION_R50_SW REUNION_R50_NW REUNION_R64_NE REUNION_R64_SE REUNION_R64_SW REUNION_R64_NW BOM_LAT BOM_LON BOM_TYPE BOM_WIND BOM_PRES BOM_TNUM BOM_CI BOM_RMW BOM_R34_NE BOM_R34_SE BOM_R34_SW BOM_R34_NW BOM_R50_NE BOM_R50_SE BOM_R50_SW BOM_R50_NW BOM_R64_NE BOM_R64_SE BOM_R64_SW BOM_R64_NW BOM_ROCI BOM_POCI BOM_EYE BOM_POS_METHOD BOM_PRES_METHOD NADI_LAT NADI_LON NADI_CAT NADI_WIND NADI_PRES WELLINGTON_LAT WELLINGTON_LON WELLINGTON_WIND WELLINGTON_PRES DS824_LAT DS824_LON DS824_STAGE DS824_WIND DS824_PRES TD9636_LAT TD9636_LON TD9636_STAGE TD9636_WIND TD9636_PRES TD9635_LAT TD9635_LON TD9635_WIND TD9635_PRES TD9635_ROCI NEUMANN_LAT NEUMANN_LON NEUMANN_CLASS NEUMANN_WIND NEUMANN_PRES MLC_LAT MLC_LON MLC_CLASS MLC_WIND MLC_PRES USA_GUST BOM_GUST BOM_GUST_PER REUNION_GUST REUNION_GUST_PER USA_SEAHGT USA_SEARAD_NE USA_SEARAD_SE USA_SEARAD_SW USA_SEARAD_NW STORM_SPEED STORM_DIR
1956248N16245 1956 83 EP MM NOT_NAMED 1956-09-04 00:00:00 TS 16.3000 -115.200 75 hurdat_epa main 917 917 O________OO___ hurdat_epa EP091956 16.3000 -115.200 HU 75 1 16.3000 -115.200 TC 75 16.3000 -115.200 4 10 282
1956248N16245 1956 83 EP MM NOT_NAMED 1956-09-04 03:00:00 TS 16.4010 -115.711 main 940 940 P________PP___ EP091956 16.3978 -115.715 HU 75 1 16.3978 -115.715 TC 75 16.4137 -115.695 4 10 282
1956248N16245 1956 83 EP MM NOT_NAMED 1956-09-04 06:00:00 TS 16.5043 -116.194 75 hurdat_epa main 965 965 O________OP___ hurdat_epa EP091956 16.5000 -116.200 HU 75 1 16.5000 -116.200 TC 75 16.5214 -116.172 4 9 283
1956248N16245 1956 83 EP MM NOT_NAMED 1956-09-04 09:00:00 TS 16.6096 -116.627 main 986 986 P________PP___ EP091956 16.6074 -116.630 HU 75 1 16.6074 -116.630 TC 75 16.6184 -116.613 4 8 284
1956248N16245 1956 83 EP MM NOT_NAMED 1956-09-04 12:00:00 TS 16.7000 -117.000 75 hurdat_epa main 1008 1008 O________OO___ hurdat_epa EP091956 16.7000 -117.000 HU 75 1 16.7000 -117.000 TC 75 16.7000 -117.000 4 7 283
1956248N16245 1956 83 EP MM NOT_NAMED 1956-09-04 15:00:00 TS 16.7586 -117.317 main 1023 1023 P________PP___ EP091956 16.7574 -117.315 HU 75 1 16.7574 -117.315 TC 75 16.7636 -117.323 4 6 280
1956248N16245 1956 83 EP MM NOT_NAMED 1956-09-04 18:00:00 TS 16.8028 -117.602 75 hurdat_epa main 1047 1047 O________OP___ hurdat_epa EP091956 16.8000 -117.600 HU 75 1 16.8000 -117.600 TC 75 16.8140 -117.608 4 6 280
1956248N16245 1956 83 EP MM NOT_NAMED 1956-09-04 21:00:00 TS 16.8514 -117.886 main 1059 1059 P________PP___ EP091956 16.8499 -117.885 HU 75 1 16.8499 -117.885 TC 75 16.8574 -117.889 4 6 280
1956248N16245 1956 83 EP MM NOT_NAMED 1956-09-05 00:00:00 TS 16.9000 -118.200 75 hurdat_epa main 1077 1077 O________OO___ hurdat_epa EP091956 16.9000 -118.200 HU 75 1 16.9000 -118.200 TC 75 16.9000 -118.200 4 7 279
1956248N16245 1956 83 EP MM NOT_NAMED 1956-09-05 03:00:00 TS 16.9557 -118.580 main 1093 1093 P________PP___ EP091956 16.9500 -118.578 HU 75 1 16.9500 -118.578 TC 75 16.9785 -118.589 4 8 278
1956248N16245 1956 83 EP MM NOT_NAMED 1956-09-05 06:00:00 TS 17.0105 -119.002 75 hurdat_epa main 1119 1119 O________OP___ hurdat_epa EP091956 17.0000 -119.000 HU 75 1 17.0000 -119.000 TC 75 17.0526 -119.012 4 8 278
1956248N16245 1956 83 EP MM NOT_NAMED 1956-09-05 09:00:00 TS 17.0780 -119.445 main 1138 1138 P________PP___ EP091956 17.0724 -119.442 HU 75 1 17.0724 -119.442 TC 75 17.1003 -119.454 4 9 276
1956248N16245 1956 83 EP MM NOT_NAMED 1956-09-05 12:00:00 TS 17.1000 -119.900 75 hurdat_epa main 1173 1173 O________OO___ hurdat_epa EP091956 17.1000 -119.900 HU 75 1 17.1000 -119.900 TC 75 17.1000 -119.900 4 9 267
1956248N16245 1956 83 EP MM NOT_NAMED 1956-09-05 15:00:00 TS 17.0274 -120.353 main 1217 1217 P________PP___ EP091956 17.0299 -120.358 HU 75 1 17.0299 -120.358 TC 75 17.0170 -120.334 4 9 257
1956248N16245 1956 83 EP MM NOT_NAMED 1956-09-05 18:00:00 TS 16.8975 -120.793 75 hurdat_epa main 1255 1255 O________OP___ hurdat_epa EP091956 16.9000 -120.800 HU 75 1 16.9000 -120.800 TC 75 16.8873 -120.766 4 9 251
1956248N16245 1956 83 EP MM NOT_NAMED 1956-09-05 21:00:00 TS 16.7477 -121.210 main 1301 1301 P________PP___ EP091956 16.7499 -121.215 HU 75 1 16.7499 -121.215 TC 75 16.7389 -121.190 4 8 249
1956248N16245 1956 83 EP MM NOT_NAMED 1956-09-06 00:00:00 TS 16.6000 -121.600 75 hurdat_epa main 1339 1339 O________OO___ hurdat_epa EP091956 16.6000 -121.600 HU 75 1 16.6000 -121.600 TC 75 16.6000 -121.600 4 8 250
1956248N16245 1956 83 EP MM NOT_NAMED 1956-09-06 03:00:00 TS 16.4864 -121.958 main 1377 1377 P________PP___ EP091956 16.4849 -121.950 HU 75 1 16.4849 -121.950 TC 75 16.4924 -121.992 4 7 254
1956248N16245 1956 83 EP MM NOT_NAMED 1956-09-06 06:00:00 TS 16.4026 -122.314 75 hurdat_epa main 1408 1408 O________OP___ hurdat_epa EP091956 16.4000 -122.300 HU 75 1 16.4000 -122.300 TC 75 16.4129 -122.370 4 7 259
1956248N16245 1956 83 EP MM NOT_NAMED 1956-09-06 09:00:00 TS 16.3446 -122.697 main 1447 1447 P________PP___ EP091956 16.3427 -122.688 HU 75 1 16.3427 -122.688 TC 75 16.3519 -122.737 4 8 262
1956248N16245 1956 83 EP MM NOT_NAMED 1956-09-06 12:00:00 TS 16.3000 -123.100 75 hurdat_epa main 1478 O________OO___ hurdat_epa EP091956 16.3000 -123.100 HU 75 1 16.3000 -123.100 TC 75 16.3000 -123.100 4 8 263

About IBTrACS Database

This database is a web-friendly format of International Best Track Archive for Climate Stewardship (IBTrACS), a global best track data archive curated by NOAA dating back to 1842.

Updated: 2021-12-03